sensor_id;sensor_type;location;lat;lon;timestamp;noise_LAeq;noise_LA_min;noise_LA_max;noise_LA01;noise_LA95
37833;Laerm;23678;48.778;9.160;2024-01-30T00:02:34;37.18;31.68;40.03;;
37833;Laerm;23678;48.778;9.160;2024-01-30T00:05:18;37.11;30.89;40.13;;
37833;Laerm;23678;48.778;9.160;2024-01-30T00:08:02;37.91;32.35;45.39;;
37833;Laerm;23678;48.778;9.160;2024-01-30T00:10:46;37.27;30.89;40.03;;
37833;Laerm;23678;48.778;9.160;2024-01-30T00:13:30;37.17;31.68;44.94;;
37833;Laerm;23678;48.778;9.160;2024-01-30T00:16:20;37.05;31.68;44.07;;
37833;Laerm;23678;48.778;9.160;2024-01-30T00:19:05;37.10;31.33;41.19;;
37833;Laerm;23678;48.778;9.160;2024-01-30T00:21:49;37.06;32.35;39.81;;
37833;Laerm;23678;48.778;9.160;2024-01-30T00:24:33;38.54;31.68;49.97;;
37833;Laerm;23678;48.778;9.160;2024-01-30T00:27:17;37.12;32.35;39.81;;
37833;Laerm;23678;48.778;9.160;2024-01-30T00:30:01;37.36;31.68;41.61;;
37833;Laerm;23678;48.778;9.160;2024-01-30T00:32:45;38.26;32.58;42.59;;
37833;Laerm;23678;48.778;9.160;2024-01-30T00:35:29;37.07;31.68;39.58;;
37833;Laerm;23678;48.778;9.160;2024-01-30T00:38:13;37.08;31.68;39.92;;
37833;Laerm;23678;48.778;9.160;2024-01-30T00:40:57;38.10;32.93;41.82;;
37833;Laerm;23678;48.778;9.160;2024-01-30T00:43:41;37.09;32.93;40.03;;
37833;Laerm;23678;48.778;9.160;2024-01-30T00:46:25;37.02;31.68;39.58;;
37833;Laerm;23678;48.778;9.160;2024-01-30T00:49:10;37.02;29.92;40.13;;
37833;Laerm;23678;48.778;9.160;2024-01-30T00:51:54;37.05;30.89;39.81;;
37833;Laerm;23678;48.778;9.160;2024-01-30T00:54:38;37.08;30.89;39.92;;
37833;Laerm;23678;48.778;9.160;2024-01-30T00:57:22;37.04;31.33;39.92;;
37833;Laerm;23678;48.778;9.160;2024-01-30T01:00:06;37.08;31.68;41.61;;
37833;Laerm;23678;48.778;9.160;2024-01-30T01:02:51;37.04;32.35;40.89;;
37833;Laerm;23678;48.778;9.160;2024-01-30T01:05:35;37.01;30.89;40.03;;
37833;Laerm;23678;48.778;9.160;2024-01-30T01:08:19;37.08;30.89;39.81;;
37833;Laerm;23678;48.778;9.160;2024-01-30T01:11:04;37.15;30.89;39.89;;
37833;Laerm;23678;48.778;9.160;2024-01-30T01:13:47;37.09;32.35;39.81;;
37833;Laerm;23678;48.778;9.160;2024-01-30T01:16:31;37.12;32.35;39.81;;
37833;Laerm;23678;48.778;9.160;2024-01-30T01:19:15;37.08;30.89;39.81;;
37833;Laerm;23678;48.778;9.160;2024-01-30T01:21:59;37.05;30.89;40.03;;
37833;Laerm;23678;48.778;9.160;2024-01-30T01:24:43;37.14;29.92;39.70;;
37833;Laerm;23678;48.778;9.160;2024-01-30T01:27:27;37.03;31.68;39.92;;
37833;Laerm;23678;48.778;9.160;2024-01-30T01:30:11;37.06;30.89;40.71;;
37833;Laerm;23678;48.778;9.160;2024-01-30T01:32:58;37.07;31.68;39.92;;
37833;Laerm;23678;48.778;9.160;2024-01-30T01:35:44;38.50;31.68;50.27;;
37833;Laerm;23678;48.778;9.160;2024-01-30T01:38:28;37.17;31.68;40.23;;
37833;Laerm;23678;48.778;9.160;2024-01-30T01:41:12;37.24;31.68;41.46;;
37833;Laerm;23678;48.778;9.160;2024-01-30T01:43:56;37.07;32.93;39.92;;
37833;Laerm;23678;48.778;9.160;2024-01-30T01:46:40;37.10;32.35;40.13;;
37833;Laerm;23678;48.778;9.160;2024-01-30T01:49:25;37.08;32.35;39.81;;
37833;Laerm;23678;48.778;9.160;2024-01-30T01:52:10;37.24;32.35;39.81;;
37833;Laerm;23678;48.778;9.160;2024-01-30T01:54:54;37.08;29.92;39.81;;
37833;Laerm;23678;48.778;9.160;2024-01-30T01:57:38;37.00;31.68;39.81;;
37833;Laerm;23678;48.778;9.160;2024-01-30T02:00:22;37.06;32.35;39.81;;
37833;Laerm;23678;48.778;9.160;2024-01-30T02:03:07;37.02;30.89;39.70;;
37833;Laerm;23678;48.778;9.160;2024-01-30T02:05:51;37.93;32.35;42.03;;
37833;Laerm;23678;48.778;9.160;2024-01-30T02:08:36;37.11;30.89;39.92;;
37833;Laerm;23678;48.778;9.160;2024-01-30T02:11:21;37.02;31.68;39.81;;
37833;Laerm;23678;48.778;9.160;2024-01-30T02:14:06;37.02;29.92;39.70;;
37833;Laerm;23678;48.778;9.160;2024-01-30T02:16:50;37.13;31.68;40.03;;
37833;Laerm;23678;48.778;9.160;2024-01-30T02:19:33;37.09;31.33;39.81;;
37833;Laerm;23678;48.778;9.160;2024-01-30T02:22:17;37.21;31.68;41.82;;
37833;Laerm;23678;48.778;9.160;2024-01-30T02:25:02;37.03;30.89;39.92;;
37833;Laerm;23678;48.778;9.160;2024-01-30T02:27:46;37.03;30.89;39.92;;
37833;Laerm;23678;48.778;9.160;2024-01-30T02:30:30;37.04;29.92;40.23;;
37833;Laerm;23678;48.778;9.160;2024-01-30T02:33:14;37.19;32.35;40.43;;
37833;Laerm;23678;48.778;9.160;2024-01-30T02:35:58;37.44;32.35;41.11;;
37833;Laerm;23678;48.778;9.160;2024-01-30T02:38:42;37.93;30.89;42.93;;
37833;Laerm;23678;48.778;9.160;2024-01-30T02:41:25;37.23;31.68;40.80;;
37833;Laerm;23678;48.778;9.160;2024-01-30T02:44:09;38.40;32.35;48.29;;
37833;Laerm;23678;48.778;9.160;2024-01-30T02:46:53;37.31;31.68;41.53;;
37833;Laerm;23678;48.778;9.160;2024-01-30T02:49:38;37.36;31.68;41.96;;
37833;Laerm;23678;48.778;9.160;2024-01-30T02:52:21;37.07;32.93;39.70;;
37833;Laerm;23678;48.778;9.160;2024-01-30T02:55:06;37.05;31.68;39.70;;
37833;Laerm;23678;48.778;9.160;2024-01-30T02:57:49;37.02;32.93;39.92;;
37833;Laerm;23678;48.778;9.160;2024-01-30T03:00:34;37.07;30.89;40.33;;
37833;Laerm;23678;48.778;9.160;2024-01-30T03:03:17;37.17;29.92;46.69;;
37833;Laerm;23678;48.778;9.160;2024-01-30T03:06:01;37.19;28.67;40.03;;
37833;Laerm;23678;48.778;9.160;2024-01-30T03:08:45;37.09;30.89;39.81;;
37833;Laerm;23678;48.778;9.160;2024-01-30T03:11:29;37.22;32.35;40.53;;
37833;Laerm;23678;48.778;9.160;2024-01-30T03:14:13;37.09;30.89;39.70;;
37833;Laerm;23678;48.778;9.160;2024-01-30T03:16:57;37.03;29.92;39.92;;
37833;Laerm;23678;48.778;9.160;2024-01-30T03:19:42;37.17;30.89;40.43;;
37833;Laerm;23678;48.778;9.160;2024-01-30T03:22:26;37.48;32.35;41.68;;
37833;Laerm;23678;48.778;9.160;2024-01-30T03:25:10;37.14;31.68;40.23;;
37833;Laerm;23678;48.778;9.160;2024-01-30T03:27:54;37.39;32.58;40.53;;
37833;Laerm;23678;48.778;9.160;2024-01-30T03:30:37;37.24;32.93;40.13;;
37833;Laerm;23678;48.778;9.160;2024-01-30T03:33:22;37.30;32.35;40.13;;
37833;Laerm;23678;48.778;9.160;2024-01-30T03:36:05;37.36;31.68;43.29;;
37833;Laerm;23678;48.778;9.160;2024-01-30T03:38:49;38.53;32.35;45.63;;
37833;Laerm;23678;48.778;9.160;2024-01-30T03:41:33;37.59;31.68;41.68;;
37833;Laerm;23678;48.778;9.160;2024-01-30T03:44:17;39.22;32.35;47.83;;
37833;Laerm;23678;48.778;9.160;2024-01-30T03:47:01;38.85;32.35;43.34;;
37833;Laerm;23678;48.778;9.160;2024-01-30T03:49:45;37.67;31.68;41.96;;
37833;Laerm;23678;48.778;9.160;2024-01-30T03:52:29;37.85;30.89;42.16;;
37833;Laerm;23678;48.778;9.160;2024-01-30T03:55:13;38.83;32.35;43.63;;
37833;Laerm;23678;48.778;9.160;2024-01-30T03:57:57;37.95;33.44;41.22;;
37833;Laerm;23678;48.778;9.160;2024-01-30T04:00:41;39.12;32.35;50.03;;
37833;Laerm;23678;48.778;9.160;2024-01-30T04:03:25;37.52;32.35;41.46;;
37833;Laerm;23678;48.778;9.160;2024-01-30T04:06:09;37.91;32.35;43.09;;
37833;Laerm;23678;48.778;9.160;2024-01-30T04:08:53;38.26;32.35;43.19;;
37833;Laerm;23678;48.778;9.160;2024-01-30T04:11:37;37.56;32.35;41.61;;
37833;Laerm;23678;48.778;9.160;2024-01-30T04:14:21;38.17;32.93;41.75;;
37833;Laerm;23678;48.778;9.160;2024-01-30T04:17:05;37.88;32.35;43.81;;
37833;Laerm;23678;48.778;9.160;2024-01-30T04:19:49;37.57;32.93;40.62;;
37833;Laerm;23678;48.778;9.160;2024-01-30T04:22:33;37.59;32.35;40.80;;
37833;Laerm;23678;48.778;9.160;2024-01-30T04:25:17;37.99;32.00;43.54;;
37833;Laerm;23678;48.778;9.160;2024-01-30T04:28:01;37.68;32.93;42.76;;
37833;Laerm;23678;48.778;9.160;2024-01-30T04:30:45;38.37;33.44;45.36;;
37833;Laerm;23678;48.778;9.160;2024-01-30T04:33:29;37.97;30.89;43.49;;
37833;Laerm;23678;48.778;9.160;2024-01-30T04:36:13;39.29;33.44;48.54;;
37833;Laerm;23678;48.778;9.160;2024-01-30T04:38:57;39.03;33.44;48.08;;
37833;Laerm;23678;48.778;9.160;2024-01-30T04:41:41;38.95;34.31;47.68;;
37833;Laerm;23678;48.778;9.160;2024-01-30T04:44:24;39.94;34.31;44.27;;
37833;Laerm;23678;48.778;9.160;2024-01-30T04:47:08;39.41;32.93;52.33;;
37833;Laerm;23678;48.778;9.160;2024-01-30T04:49:55;37.85;32.35;44.31;;
37833;Laerm;23678;48.778;9.160;2024-01-30T04:52:38;38.13;32.93;44.03;;
37833;Laerm;23678;48.778;9.160;2024-01-30T04:55:22;38.42;32.35;45.48;;
37833;Laerm;23678;48.778;9.160;2024-01-30T04:58:06;38.14;32.93;44.76;;
37833;Laerm;23678;48.778;9.160;2024-01-30T05:00:50;38.17;32.35;42.03;;
37833;Laerm;23678;48.778;9.160;2024-01-30T05:03:35;39.89;33.90;45.04;;
37833;Laerm;23678;48.778;9.160;2024-01-30T05:06:26;41.10;37.32;54.32;;
37833;Laerm;23678;48.778;9.160;2024-01-30T05:09:10;40.55;33.44;52.67;;
37833;Laerm;23678;48.778;9.160;2024-01-30T05:11:54;38.45;32.93;43.72;;
37833;Laerm;23678;48.778;9.160;2024-01-30T05:14:38;41.18;34.31;51.98;;
37833;Laerm;23678;48.778;9.160;2024-01-30T05:17:22;38.59;34.31;41.48;;
37833;Laerm;23678;48.778;9.160;2024-01-30T05:20:06;41.24;33.90;54.74;;
37833;Laerm;23678;48.778;9.160;2024-01-30T05:22:51;38.66;33.90;41.61;;
37833;Laerm;23678;48.778;9.160;2024-01-30T05:25:35;39.84;34.31;53.11;;
37833;Laerm;23678;48.778;9.160;2024-01-30T05:28:19;39.86;33.44;51.03;;
37833;Laerm;23678;48.778;9.160;2024-01-30T05:31:03;39.28;34.31;42.65;;
37833;Laerm;23678;48.778;9.160;2024-01-30T05:33:47;39.17;34.31;42.88;;
37833;Laerm;23678;48.778;9.160;2024-01-30T05:36:31;39.74;34.69;50.88;;
37833;Laerm;23678;48.778;9.160;2024-01-30T05:39:15;40.00;35.04;53.71;;
37833;Laerm;23678;48.778;9.160;2024-01-30T05:41:59;39.19;34.31;50.64;;
37833;Laerm;23678;48.778;9.160;2024-01-30T05:44:43;40.92;34.31;50.93;;
37833;Laerm;23678;48.778;9.160;2024-01-30T05:47:27;41.51;35.66;51.78;;
37833;Laerm;23678;48.778;9.160;2024-01-30T05:50:11;40.44;36.20;46.71;;
37833;Laerm;23678;48.778;9.160;2024-01-30T05:52:55;40.65;35.94;58.64;;
37833;Laerm;23678;48.778;9.160;2024-01-30T05:55:39;40.60;35.36;53.21;;
37833;Laerm;23678;48.778;9.160;2024-01-30T05:58:23;42.53;36.45;56.51;;
37833;Laerm;23678;48.778;9.160;2024-01-30T06:01:07;41.88;36.69;48.51;;
37833;Laerm;23678;48.778;9.160;2024-01-30T06:03:52;41.52;36.69;51.21;;
37833;Laerm;23678;48.778;9.160;2024-01-30T06:06:36;41.70;36.20;53.61;;
37833;Laerm;23678;48.778;9.160;2024-01-30T06:09:20;42.50;36.69;55.59;;
37833;Laerm;23678;48.778;9.160;2024-01-30T06:12:05;39.78;34.69;46.82;;
37833;Laerm;23678;48.778;9.160;2024-01-30T06:14:48;39.73;35.36;44.58;;
37833;Laerm;23678;48.778;9.160;2024-01-30T06:17:32;40.13;35.66;45.33;;
37833;Laerm;23678;48.778;9.160;2024-01-30T06:20:16;42.61;36.45;57.25;;
37833;Laerm;23678;48.778;9.160;2024-01-30T06:23:00;42.34;36.91;53.54;;
37833;Laerm;23678;48.778;9.160;2024-01-30T06:25:44;42.17;36.98;50.07;;
37833;Laerm;23678;48.778;9.160;2024-01-30T06:28:28;42.19;35.66;53.85;;
37833;Laerm;23678;48.778;9.160;2024-01-30T06:31:12;42.64;37.12;53.86;;
37833;Laerm;23678;48.778;9.160;2024-01-30T06:33:56;41.43;36.20;53.57;;
37833;Laerm;23678;48.778;9.160;2024-01-30T06:36:40;42.45;36.69;51.96;;
37833;Laerm;23678;48.778;9.160;2024-01-30T06:39:24;43.06;37.12;54.03;;
37833;Laerm;23678;48.778;9.160;2024-01-30T06:42:09;41.74;37.12;50.51;;
37833;Laerm;23678;48.778;9.160;2024-01-30T06:44:52;44.14;37.12;54.63;;
37833;Laerm;23678;48.778;9.160;2024-01-30T06:47:36;42.70;37.70;50.73;;
37833;Laerm;23678;48.778;9.160;2024-01-30T06:50:20;43.35;36.69;55.71;;
37833;Laerm;23678;48.778;9.160;2024-01-30T06:53:04;41.53;37.12;51.89;;
37833;Laerm;23678;48.778;9.160;2024-01-30T06:55:48;42.76;37.12;51.30;;
37833;Laerm;23678;48.778;9.160;2024-01-30T06:58:32;42.06;37.12;50.04;;
37833;Laerm;23678;48.778;9.160;2024-01-30T07:01:16;42.01;36.45;52.72;;
37833;Laerm;23678;48.778;9.160;2024-01-30T07:04:00;44.60;36.91;59.04;;
37833;Laerm;23678;48.778;9.160;2024-01-30T07:06:44;41.21;35.36;51.12;;
37833;Laerm;23678;48.778;9.160;2024-01-30T07:09:28;43.20;36.69;53.01;;
37833;Laerm;23678;48.778;9.160;2024-01-30T07:12:12;42.65;36.69;53.64;;
37833;Laerm;23678;48.778;9.160;2024-01-30T07:14:56;44.77;36.69;60.68;;
37833;Laerm;23678;48.778;9.160;2024-01-30T07:17:42;43.13;36.34;53.86;;
37833;Laerm;23678;48.778;9.160;2024-01-30T07:20:26;41.79;36.20;52.63;;
37833;Laerm;23678;48.778;9.160;2024-01-30T07:23:10;42.00;37.12;50.36;;
37833;Laerm;23678;48.778;9.160;2024-01-30T07:25:57;43.55;36.45;54.43;;
37833;Laerm;23678;48.778;9.160;2024-01-30T07:28:41;41.25;36.69;51.20;;
37833;Laerm;23678;48.778;9.160;2024-01-30T07:31:25;42.54;35.94;51.03;;
37833;Laerm;23678;48.778;9.160;2024-01-30T07:34:09;41.89;35.66;54.11;;
37833;Laerm;23678;48.778;9.160;2024-01-30T07:36:53;41.12;35.36;50.45;;
37833;Laerm;23678;48.778;9.160;2024-01-30T07:39:37;42.03;36.69;48.67;;
37833;Laerm;23678;48.778;9.160;2024-01-30T07:42:21;40.93;35.36;48.84;;
37833;Laerm;23678;48.778;9.160;2024-01-30T07:45:05;41.97;36.45;55.68;;
37833;Laerm;23678;48.778;9.160;2024-01-30T07:47:49;41.87;36.45;49.95;;
37833;Laerm;23678;48.778;9.160;2024-01-30T07:50:33;41.23;36.91;50.22;;
37833;Laerm;23678;48.778;9.160;2024-01-30T07:53:17;43.45;36.91;54.59;;
37833;Laerm;23678;48.778;9.160;2024-01-30T07:56:01;43.59;38.37;54.33;;
37833;Laerm;23678;48.778;9.160;2024-01-30T07:58:45;41.33;36.91;50.12;;
37833;Laerm;23678;48.778;9.160;2024-01-30T08:01:29;41.83;35.94;51.90;;
37833;Laerm;23678;48.778;9.160;2024-01-30T08:04:13;40.16;35.04;48.25;;
37833;Laerm;23678;48.778;9.160;2024-01-30T08:06:57;41.03;35.94;50.93;;
37833;Laerm;23678;48.778;9.160;2024-01-30T08:09:41;42.88;36.20;51.52;;
37833;Laerm;23678;48.778;9.160;2024-01-30T08:12:24;41.27;33.90;50.21;;
37833;Laerm;23678;48.778;9.160;2024-01-30T08:15:08;39.85;34.69;43.68;;
37833;Laerm;23678;48.778;9.160;2024-01-30T08:17:52;42.50;34.69;52.78;;
37833;Laerm;23678;48.778;9.160;2024-01-30T08:20:41;41.00;35.36;55.68;;
37833;Laerm;23678;48.778;9.160;2024-01-30T08:23:25;41.45;35.04;50.27;;
37833;Laerm;23678;48.778;9.160;2024-01-30T08:26:12;39.84;34.69;50.29;;
37833;Laerm;23678;48.778;9.160;2024-01-30T08:28:56;42.19;36.45;52.47;;
37833;Laerm;23678;48.778;9.160;2024-01-30T08:31:40;39.76;35.66;44.07;;
37833;Laerm;23678;48.778;9.160;2024-01-30T08:34:24;41.72;36.20;54.97;;
37833;Laerm;23678;48.778;9.160;2024-01-30T08:37:08;41.67;36.20;51.33;;
37833;Laerm;23678;48.778;9.160;2024-01-30T08:39:52;42.29;36.45;54.44;;
37833;Laerm;23678;48.778;9.160;2024-01-30T08:42:37;39.70;34.34;49.20;;
37833;Laerm;23678;48.778;9.160;2024-01-30T08:45:21;41.43;36.69;54.34;;
37833;Laerm;23678;48.778;9.160;2024-01-30T08:48:05;39.81;33.90;49.50;;
37833;Laerm;23678;48.778;9.160;2024-01-30T08:50:49;40.97;34.31;49.82;;
37833;Laerm;23678;48.778;9.160;2024-01-30T08:53:33;40.89;32.93;50.92;;
37833;Laerm;23678;48.778;9.160;2024-01-30T08:56:17;40.58;33.90;51.12;;
37833;Laerm;23678;48.778;9.160;2024-01-30T08:59:01;41.83;33.44;55.51;;
37833;Laerm;23678;48.778;9.160;2024-01-30T09:01:45;39.63;34.69;44.35;;
37833;Laerm;23678;48.778;9.160;2024-01-30T09:04:30;43.94;34.69;58.61;;
37833;Laerm;23678;48.778;9.160;2024-01-30T09:07:14;40.59;34.34;44.31;;
37833;Laerm;23678;48.778;9.160;2024-01-30T09:09:58;41.59;34.69;52.34;;
37833;Laerm;23678;48.778;9.160;2024-01-30T09:12:42;40.90;35.04;50.78;;
37833;Laerm;23678;48.778;9.160;2024-01-30T09:15:26;39.74;35.36;50.37;;
37833;Laerm;23678;48.778;9.160;2024-01-30T09:18:10;42.60;36.45;54.38;;
37833;Laerm;23678;48.778;9.160;2024-01-30T09:20:54;40.95;35.66;51.03;;
37833;Laerm;23678;48.778;9.160;2024-01-30T09:23:37;42.54;37.35;52.51;;
37833;Laerm;23678;48.778;9.160;2024-01-30T09:26:21;41.22;36.69;54.87;;
37833;Laerm;23678;48.778;9.160;2024-01-30T09:29:05;42.24;35.04;56.83;;
37833;Laerm;23678;48.778;9.160;2024-01-30T09:31:49;40.33;34.69;49.49;;
37833;Laerm;23678;48.778;9.160;2024-01-30T09:34:33;39.49;33.90;45.91;;
37833;Laerm;23678;48.778;9.160;2024-01-30T09:37:17;41.04;33.44;55.63;;
37833;Laerm;23678;48.778;9.160;2024-01-30T09:40:01;39.42;32.93;46.59;;
37833;Laerm;23678;48.778;9.160;2024-01-30T09:42:46;40.64;34.69;51.70;;
37833;Laerm;23678;48.778;9.160;2024-01-30T09:45:30;42.53;37.88;53.61;;
37833;Laerm;23678;48.778;9.160;2024-01-30T09:48:16;39.60;33.90;45.60;;
37833;Laerm;23678;48.778;9.160;2024-01-30T09:51:00;39.51;33.44;46.30;;
37833;Laerm;23678;48.778;9.160;2024-01-30T09:53:45;41.33;34.31;49.47;;
37833;Laerm;23678;48.778;9.160;2024-01-30T09:56:29;41.02;36.45;49.70;;
37833;Laerm;23678;48.778;9.160;2024-01-30T09:59:13;40.35;34.31;50.33;;
37833;Laerm;23678;48.778;9.160;2024-01-30T10:01:57;40.54;34.31;49.04;;
37833;Laerm;23678;48.778;9.160;2024-01-30T10:04:41;39.76;35.36;47.70;;
37833;Laerm;23678;48.778;9.160;2024-01-30T10:07:25;41.74;35.66;48.34;;
37833;Laerm;23678;48.778;9.160;2024-01-30T10:10:09;40.50;35.66;44.87;;
37833;Laerm;23678;48.778;9.160;2024-01-30T10:12:53;40.68;35.04;51.51;;
37833;Laerm;23678;48.778;9.160;2024-01-30T10:15:37;40.94;36.20;49.79;;
37833;Laerm;23678;48.778;9.160;2024-01-30T10:18:22;39.16;34.69;43.85;;
37833;Laerm;23678;48.778;9.160;2024-01-30T10:21:06;41.03;33.44;50.58;;
37833;Laerm;23678;48.778;9.160;2024-01-30T10:23:50;40.96;33.44;50.14;;
37833;Laerm;23678;48.778;9.160;2024-01-30T10:26:34;39.34;33.90;45.91;;
37833;Laerm;23678;48.778;9.160;2024-01-30T10:29:21;41.53;33.44;49.97;;
37833;Laerm;23678;48.778;9.160;2024-01-30T10:32:05;41.03;35.36;55.38;;
37833;Laerm;23678;48.778;9.160;2024-01-30T10:34:49;39.56;33.44;45.27;;
37833;Laerm;23678;48.778;9.160;2024-01-30T10:37:33;38.55;32.93;47.24;;
37833;Laerm;23678;48.778;9.160;2024-01-30T10:40:18;40.38;34.69;48.85;;
37833;Laerm;23678;48.778;9.160;2024-01-30T10:43:05;40.15;34.31;51.50;;
37833;Laerm;23678;48.778;9.160;2024-01-30T10:45:53;41.36;35.94;52.24;;
37833;Laerm;23678;48.778;9.160;2024-01-30T10:48:42;39.59;33.90;49.08;;
37833;Laerm;23678;48.778;9.160;2024-01-30T10:51:27;41.02;33.44;48.91;;
37833;Laerm;23678;48.778;9.160;2024-01-30T10:54:11;41.28;35.59;49.67;;
37833;Laerm;23678;48.778;9.160;2024-01-30T10:56:56;41.50;34.69;45.86;;
37833;Laerm;23678;48.778;9.160;2024-01-30T10:59:43;41.04;33.44;49.23;;
37833;Laerm;23678;48.778;9.160;2024-01-30T11:02:27;42.34;34.34;50.51;;
37833;Laerm;23678;48.778;9.160;2024-01-30T11:05:13;41.50;35.36;47.84;;
37833;Laerm;23678;48.778;9.160;2024-01-30T11:08:09;41.43;34.31;50.16;;
37833;Laerm;23678;48.778;9.160;2024-01-30T11:10:56;40.31;32.93;45.83;;
37833;Laerm;23678;48.778;9.160;2024-01-30T11:13:43;41.54;35.94;51.67;;
37833;Laerm;23678;48.778;9.160;2024-01-30T11:16:30;40.43;33.90;47.67;;
37833;Laerm;23678;48.778;9.160;2024-01-30T11:19:14;38.73;33.44;45.97;;
37833;Laerm;23678;48.778;9.160;2024-01-30T11:21:59;40.29;32.93;62.63;;
37833;Laerm;23678;48.778;9.160;2024-01-30T11:24:43;39.03;32.93;51.88;;
37833;Laerm;23678;48.778;9.160;2024-01-30T11:27:30;40.48;33.90;51.94;;
37833;Laerm;23678;48.778;9.160;2024-01-30T11:33:13;39.66;32.35;50.34;;
37833;Laerm;23678;48.778;9.160;2024-01-30T11:35:57;39.40;32.35;46.61;;
37833;Laerm;23678;48.778;9.160;2024-01-30T11:38:41;38.26;32.93;45.69;;
37833;Laerm;23678;48.778;9.160;2024-01-30T11:41:26;39.90;32.93;49.84;;
37833;Laerm;23678;48.778;9.160;2024-01-30T11:44:11;40.94;34.31;49.39;;
37833;Laerm;23678;48.778;9.160;2024-01-30T11:46:55;41.19;32.93;57.92;;
37833;Laerm;23678;48.778;9.160;2024-01-30T11:49:39;40.85;34.31;51.32;;
37833;Laerm;23678;48.778;9.160;2024-01-30T11:52:23;39.90;32.93;56.64;;
37833;Laerm;23678;48.778;9.160;2024-01-30T11:55:07;40.54;33.44;50.35;;
37833;Laerm;23678;48.778;9.160;2024-01-30T11:57:55;39.03;32.93;46.25;;
37833;Laerm;23678;48.778;9.160;2024-01-30T12:00:39;40.31;35.04;50.01;;
37833;Laerm;23678;48.778;9.160;2024-01-30T12:03:23;40.55;32.93;55.82;;
37833;Laerm;23678;48.778;9.160;2024-01-30T12:06:06;40.78;33.90;53.83;;
37833;Laerm;23678;48.778;9.160;2024-01-30T12:09:00;39.60;33.90;48.37;;
37833;Laerm;23678;48.778;9.160;2024-01-30T12:11:47;42.14;33.97;52.94;;
37833;Laerm;23678;48.778;9.160;2024-01-30T12:14:31;39.63;33.44;50.98;;
37833;Laerm;23678;48.778;9.160;2024-01-30T12:17:31;39.15;33.90;44.65;;
37833;Laerm;23678;48.778;9.160;2024-01-30T12:20:18;41.33;33.44;50.53;;
37833;Laerm;23678;48.778;9.160;2024-01-30T12:23:02;39.88;32.93;51.34;;
37833;Laerm;23678;48.778;9.160;2024-01-30T12:25:46;40.07;33.44;50.10;;
37833;Laerm;23678;48.778;9.160;2024-01-30T12:28:30;41.56;34.31;47.38;;
37833;Laerm;23678;48.778;9.160;2024-01-30T12:31:13;40.09;34.31;47.02;;
37833;Laerm;23678;48.778;9.160;2024-01-30T12:33:59;39.12;32.93;44.51;;
37833;Laerm;23678;48.778;9.160;2024-01-30T12:36:43;42.75;34.69;53.88;;
37833;Laerm;23678;48.778;9.160;2024-01-30T12:39:27;40.22;33.44;45.07;;
37833;Laerm;23678;48.778;9.160;2024-01-30T12:42:11;41.73;31.33;51.05;;
37833;Laerm;23678;48.778;9.160;2024-01-30T12:44:58;38.61;32.35;45.54;;
37833;Laerm;23678;48.778;9.160;2024-01-30T12:47:43;39.73;31.68;48.92;;
37833;Laerm;23678;48.778;9.160;2024-01-30T12:50:27;40.63;33.44;50.14;;
37833;Laerm;23678;48.778;9.160;2024-01-30T12:53:11;40.01;32.93;49.69;;
37833;Laerm;23678;48.778;9.160;2024-01-30T12:55:56;40.49;33.44;47.04;;
37833;Laerm;23678;48.778;9.160;2024-01-30T12:58:40;40.31;31.68;52.63;;
37833;Laerm;23678;48.778;9.160;2024-01-30T13:01:26;39.37;32.93;51.72;;
37833;Laerm;23678;48.778;9.160;2024-01-30T13:04:10;42.26;33.44;53.74;;
37833;Laerm;23678;48.778;9.160;2024-01-30T13:06:54;39.18;31.68;47.30;;
37833;Laerm;23678;48.778;9.160;2024-01-30T13:09:38;40.64;32.35;50.72;;
37833;Laerm;23678;48.778;9.160;2024-01-30T13:12:22;40.56;33.44;50.46;;
37833;Laerm;23678;48.778;9.160;2024-01-30T13:15:06;39.30;33.44;44.54;;
37833;Laerm;23678;48.778;9.160;2024-01-30T13:17:49;41.85;34.31;55.64;;
37833;Laerm;23678;48.778;9.160;2024-01-30T13:20:33;40.56;33.44;52.31;;
37833;Laerm;23678;48.778;9.160;2024-01-30T13:23:17;40.77;34.69;55.61;;
37833;Laerm;23678;48.778;9.160;2024-01-30T13:26:01;40.46;35.66;48.88;;
37833;Laerm;23678;48.778;9.160;2024-01-30T13:28:46;41.67;34.31;48.67;;
37833;Laerm;23678;48.778;9.160;2024-01-30T13:31:30;40.15;33.90;50.98;;
37833;Laerm;23678;48.778;9.160;2024-01-30T13:34:14;39.62;32.93;44.62;;
37833;Laerm;23678;48.778;9.160;2024-01-30T13:36:58;40.98;33.90;50.30;;
37833;Laerm;23678;48.778;9.160;2024-01-30T13:39:42;39.76;32.93;47.63;;
37833;Laerm;23678;48.778;9.160;2024-01-30T13:42:26;40.72;33.90;52.22;;
37833;Laerm;23678;48.778;9.160;2024-01-30T13:45:10;42.19;35.04;50.92;;
37833;Laerm;23678;48.778;9.160;2024-01-30T13:47:53;38.28;31.68;43.19;;
37833;Laerm;23678;48.778;9.160;2024-01-30T14:33:22;40.43;32.93;52.04;;
37833;Laerm;23678;48.778;9.160;2024-01-30T14:36:05;40.89;33.44;52.66;;
37833;Laerm;23678;48.778;9.160;2024-01-30T14:38:51;42.21;35.04;52.60;;
37833;Laerm;23678;48.778;9.160;2024-01-30T14:41:35;42.99;35.36;54.14;;
37833;Laerm;23678;48.778;9.160;2024-01-30T14:44:19;41.86;33.90;62.67;;
37833;Laerm;23678;48.778;9.160;2024-01-30T14:47:12;41.32;33.90;50.02;;
37833;Laerm;23678;48.778;9.160;2024-01-30T14:49:57;40.88;34.69;55.43;;
37833;Laerm;23678;48.778;9.160;2024-01-30T14:52:41;42.80;34.31;55.89;;
37833;Laerm;23678;48.778;9.160;2024-01-30T14:55:25;39.96;33.90;48.48;;
37833;Laerm;23678;48.778;9.160;2024-01-30T14:58:09;42.28;33.90;56.72;;
37833;Laerm;23678;48.778;9.160;2024-01-30T15:00:53;43.38;33.44;53.18;;
37833;Laerm;23678;48.778;9.160;2024-01-30T15:03:37;40.13;34.69;52.77;;
37833;Laerm;23678;48.778;9.160;2024-01-30T15:06:32;43.34;35.04;56.01;;
37833;Laerm;23678;48.778;9.160;2024-01-30T15:09:16;41.16;34.31;56.00;;
37833;Laerm;23678;48.778;9.160;2024-01-30T15:15:22;41.87;34.69;54.80;;
37833;Laerm;23678;48.778;9.160;2024-01-30T15:18:06;40.12;30.89;50.08;;
37833;Laerm;23678;48.778;9.160;2024-01-30T15:20:51;39.57;32.35;46.28;;
37833;Laerm;23678;48.778;9.160;2024-01-30T15:23:35;40.52;33.44;58.47;;
37833;Laerm;23678;48.778;9.160;2024-01-30T15:26:19;39.41;32.35;58.32;;
37833;Laerm;23678;48.778;9.160;2024-01-30T15:32:28;39.79;31.68;58.02;;
37833;Laerm;23678;48.778;9.160;2024-01-30T15:35:12;40.31;32.93;52.07;;
37833;Laerm;23678;48.778;9.160;2024-01-30T15:37:56;39.68;32.35;60.26;;
37833;Laerm;23678;48.778;9.160;2024-01-30T15:40:40;40.45;33.44;46.36;;
37833;Laerm;23678;48.778;9.160;2024-01-30T15:43:24;39.22;32.93;47.44;;
37833;Laerm;23678;48.778;9.160;2024-01-30T15:46:08;39.34;32.35;46.23;;
37833;Laerm;23678;48.778;9.160;2024-01-30T15:48:52;40.50;32.35;50.17;;
37833;Laerm;23678;48.778;9.160;2024-01-30T15:51:36;40.75;32.93;58.42;;
37833;Laerm;23678;48.778;9.160;2024-01-30T15:54:20;38.55;32.93;45.23;;
37833;Laerm;23678;48.778;9.160;2024-01-30T15:57:05;40.56;32.35;50.03;;
37833;Laerm;23678;48.778;9.160;2024-01-30T15:59:49;39.64;32.93;46.33;;
37833;Laerm;23678;48.778;9.160;2024-01-30T16:02:33;40.07;32.93;51.62;;
37833;Laerm;23678;48.778;9.160;2024-01-30T16:05:17;39.94;33.44;48.05;;
37833;Laerm;23678;48.778;9.160;2024-01-30T16:08:01;40.42;34.69;47.68;;
37833;Laerm;23678;48.778;9.160;2024-01-30T16:10:45;39.50;33.44;45.94;;
37833;Laerm;23678;48.778;9.160;2024-01-30T16:13:29;41.12;34.69;49.95;;